KBRY/BRY METAR and TAF weather

Enter ICAO airport designator
Station Type Date Time Source
KBRY METAR 2021/02/25 15:55 UTC NOAA

KBRY 251555Z AUTO 03006KT 10SM SCT020 04/M01 A3034 RMK AO1


Station Type Date Time Source
KBRY Decoded METAR 2021/02/25 15:55 UTC NOAA

Station name not available
Feb 25, 2021 - 10:55 AM EST / 2021.02.25 1555 UTC
Wind: from the NNE (030 degrees) at 7 MPH (6 KT):0
Visibility: 10 mile(s):0
Sky conditions: partly cloudy
Temperature: 39 F (4 C)
Dew Point: 30 F (-1 C)
Relative Humidity: 69%
Pressure (altimeter): 30.34 in. Hg (1027 hPa)
ob: KBRY 251555Z AUTO 03006KT 10SM SCT020 04/M01 A3034 RMK AO1
cycle: 16

Station Type Date Time Source
KBRY TAF UTC NOAA

Error!

Example: see airport list